sensor_id;sensor_type;location;lat;lon;timestamp;P1;durP1;ratioP1;P2;durP2;ratioP2
48002;SDS011;33768;48.578;11.574;2023-03-03T00:01:40;52.47;;;26.30;;
48002;SDS011;33768;48.578;11.574;2023-03-03T00:04:44;46.00;;;26.17;;
48002;SDS011;33768;48.578;11.574;2023-03-03T00:07:48;50.63;;;26.73;;
48002;SDS011;33768;48.578;11.574;2023-03-03T00:10:53;49.30;;;26.70;;
48002;SDS011;33768;48.578;11.574;2023-03-03T00:13:58;54.80;;;28.50;;
48002;SDS011;33768;48.578;11.574;2023-03-03T00:17:19;51.37;;;26.40;;
48002;SDS011;33768;48.578;11.574;2023-03-03T00:23:35;52.97;;;27.43;;
48002;SDS011;33768;48.578;11.574;2023-03-03T00:26:44;49.70;;;26.63;;
48002;SDS011;33768;48.578;11.574;2023-03-03T00:29:57;53.77;;;26.07;;
48002;SDS011;33768;48.578;11.574;2023-03-03T00:33:02;51.23;;;27.50;;
48002;SDS011;33768;48.578;11.574;2023-03-03T00:39:42;50.23;;;26.20;;
48002;SDS011;33768;48.578;11.574;2023-03-03T00:42:48;51.17;;;26.13;;
48002;SDS011;33768;48.578;11.574;2023-03-03T00:45:55;53.33;;;27.60;;
48002;SDS011;33768;48.578;11.574;2023-03-03T00:48:59;54.33;;;26.07;;
48002;SDS011;33768;48.578;11.574;2023-03-03T00:52:09;48.20;;;26.47;;
48002;SDS011;33768;48.578;11.574;2023-03-03T00:55:19;54.97;;;27.33;;
48002;SDS011;33768;48.578;11.574;2023-03-03T00:58:23;50.03;;;26.73;;
48002;SDS011;33768;48.578;11.574;2023-03-03T01:01:28;48.83;;;25.57;;
48002;SDS011;33768;48.578;11.574;2023-03-03T01:04:32;52.33;;;27.30;;
48002;SDS011;33768;48.578;11.574;2023-03-03T01:07:36;53.13;;;28.17;;
48002;SDS011;33768;48.578;11.574;2023-03-03T01:10:42;51.17;;;27.27;;
48002;SDS011;33768;48.578;11.574;2023-03-03T01:13:53;53.57;;;27.63;;
48002;SDS011;33768;48.578;11.574;2023-03-03T01:16:57;51.10;;;26.33;;
48002;SDS011;33768;48.578;11.574;2023-03-03T01:20:02;58.57;;;28.27;;
48002;SDS011;33768;48.578;11.574;2023-03-03T01:23:07;59.73;;;28.17;;
48002;SDS011;33768;48.578;11.574;2023-03-03T01:26:11;57.27;;;28.10;;
48002;SDS011;33768;48.578;11.574;2023-03-03T01:29:16;55.33;;;28.73;;
48002;SDS011;33768;48.578;11.574;2023-03-03T01:32:20;57.10;;;28.63;;
48002;SDS011;33768;48.578;11.574;2023-03-03T01:35:24;59.43;;;28.73;;
48002;SDS011;33768;48.578;11.574;2023-03-03T01:38:28;55.73;;;28.97;;
48002;SDS011;33768;48.578;11.574;2023-03-03T01:41:34;58.13;;;27.17;;
48002;SDS011;33768;48.578;11.574;2023-03-03T01:44:38;54.17;;;27.30;;
48002;SDS011;33768;48.578;11.574;2023-03-03T01:47:47;55.40;;;27.77;;
48002;SDS011;33768;48.578;11.574;2023-03-03T01:50:56;59.40;;;28.43;;
48002;SDS011;33768;48.578;11.574;2023-03-03T01:54:11;60.83;;;27.63;;
48002;SDS011;33768;48.578;11.574;2023-03-03T01:57:22;54.57;;;29.73;;
48002;SDS011;33768;48.578;11.574;2023-03-03T02:00:33;52.50;;;26.83;;
48002;SDS011;33768;48.578;11.574;2023-03-03T02:03:39;51.23;;;25.80;;
48002;SDS011;33768;48.578;11.574;2023-03-03T02:06:45;58.07;;;28.07;;
48002;SDS011;33768;48.578;11.574;2023-03-03T02:10:08;58.20;;;26.47;;
48002;SDS011;33768;48.578;11.574;2023-03-03T02:13:15;56.83;;;26.90;;
48002;SDS011;33768;48.578;11.574;2023-03-03T02:16:19;55.20;;;26.20;;
48002;SDS011;33768;48.578;11.574;2023-03-03T02:22:58;55.37;;;26.03;;
48002;SDS011;33768;48.578;11.574;2023-03-03T02:26:29;55.43;;;26.10;;
48002;SDS011;33768;48.578;11.574;2023-03-03T02:29:40;53.30;;;26.23;;
48002;SDS011;33768;48.578;11.574;2023-03-03T02:32:45;55.27;;;27.27;;
48002;SDS011;33768;48.578;11.574;2023-03-03T02:35:50;50.70;;;24.83;;
48002;SDS011;33768;48.578;11.574;2023-03-03T02:42:15;56.37;;;26.67;;
48002;SDS011;33768;48.578;11.574;2023-03-03T02:45:30;46.03;;;25.07;;
48002;SDS011;33768;48.578;11.574;2023-03-03T02:48:35;54.97;;;27.33;;
48002;SDS011;33768;48.578;11.574;2023-03-03T02:51:39;56.13;;;27.80;;
48002;SDS011;33768;48.578;11.574;2023-03-03T02:54:45;54.63;;;27.50;;
48002;SDS011;33768;48.578;11.574;2023-03-03T02:57:49;51.27;;;27.10;;
48002;SDS011;33768;48.578;11.574;2023-03-03T03:00:53;56.03;;;26.80;;
48002;SDS011;33768;48.578;11.574;2023-03-03T03:04:00;49.50;;;25.63;;
48002;SDS011;33768;48.578;11.574;2023-03-03T03:07:04;49.67;;;26.03;;
48002;SDS011;33768;48.578;11.574;2023-03-03T03:10:11;51.03;;;25.73;;
48002;SDS011;33768;48.578;11.574;2023-03-03T03:13:17;58.43;;;27.00;;
48002;SDS011;33768;48.578;11.574;2023-03-03T03:16:21;53.60;;;25.93;;
48002;SDS011;33768;48.578;11.574;2023-03-03T03:19:26;50.97;;;26.87;;
48002;SDS011;33768;48.578;11.574;2023-03-03T03:22:31;53.43;;;25.60;;
48002;SDS011;33768;48.578;11.574;2023-03-03T03:25:36;58.50;;;27.43;;
48002;SDS011;33768;48.578;11.574;2023-03-03T03:28:51;48.27;;;25.60;;
48002;SDS011;33768;48.578;11.574;2023-03-03T03:31:55;52.20;;;26.80;;
48002;SDS011;33768;48.578;11.574;2023-03-03T03:35:00;52.33;;;25.97;;
48002;SDS011;33768;48.578;11.574;2023-03-03T03:38:04;52.67;;;27.90;;
48002;SDS011;33768;48.578;11.574;2023-03-03T03:41:09;62.80;;;28.17;;
48002;SDS011;33768;48.578;11.574;2023-03-03T03:44:15;53.33;;;26.50;;
48002;SDS011;33768;48.578;11.574;2023-03-03T03:47:19;54.77;;;27.40;;
48002;SDS011;33768;48.578;11.574;2023-03-03T03:50:23;52.80;;;26.10;;
48002;SDS011;33768;48.578;11.574;2023-03-03T03:53:28;59.20;;;29.57;;
48002;SDS011;33768;48.578;11.574;2023-03-03T03:56:32;56.07;;;28.40;;
48002;SDS011;33768;48.578;11.574;2023-03-03T03:59:38;62.83;;;28.73;;
48002;SDS011;33768;48.578;11.574;2023-03-03T04:02:42;59.93;;;29.63;;
48002;SDS011;33768;48.578;11.574;2023-03-03T04:05:51;47.33;;;25.37;;
48002;SDS011;33768;48.578;11.574;2023-03-03T04:08:56;60.00;;;27.50;;
48002;SDS011;33768;48.578;11.574;2023-03-03T04:12:02;60.43;;;30.03;;
48002;SDS011;33768;48.578;11.574;2023-03-03T04:15:08;57.93;;;29.23;;
48002;SDS011;33768;48.578;11.574;2023-03-03T04:18:15;59.00;;;27.27;;
48002;SDS011;33768;48.578;11.574;2023-03-03T04:21:19;58.60;;;28.70;;
48002;SDS011;33768;48.578;11.574;2023-03-03T04:24:24;58.67;;;29.33;;
48002;SDS011;33768;48.578;11.574;2023-03-03T04:27:33;61.00;;;29.60;;
48002;SDS011;33768;48.578;11.574;2023-03-03T04:30:38;56.33;;;28.30;;
48002;SDS011;33768;48.578;11.574;2023-03-03T04:33:43;64.13;;;29.17;;
48002;SDS011;33768;48.578;11.574;2023-03-03T04:36:47;62.13;;;27.33;;
48002;SDS011;33768;48.578;11.574;2023-03-03T04:39:51;57.87;;;29.83;;
48002;SDS011;33768;48.578;11.574;2023-03-03T04:42:55;58.67;;;28.70;;
48002;SDS011;33768;48.578;11.574;2023-03-03T04:46:01;60.40;;;29.97;;
48002;SDS011;33768;48.578;11.574;2023-03-03T04:49:05;59.23;;;28.77;;
48002;SDS011;33768;48.578;11.574;2023-03-03T04:52:11;59.00;;;28.30;;
48002;SDS011;33768;48.578;11.574;2023-03-03T04:55:15;59.37;;;29.17;;
48002;SDS011;33768;48.578;11.574;2023-03-03T04:58:21;56.47;;;28.70;;
48002;SDS011;33768;48.578;11.574;2023-03-03T05:01:26;62.67;;;29.70;;
48002;SDS011;33768;48.578;11.574;2023-03-03T05:04:32;59.73;;;29.80;;
48002;SDS011;33768;48.578;11.574;2023-03-03T05:07:37;56.47;;;28.13;;
48002;SDS011;33768;48.578;11.574;2023-03-03T05:10:41;59.53;;;29.20;;
48002;SDS011;33768;48.578;11.574;2023-03-03T05:13:45;56.90;;;28.90;;
48002;SDS011;33768;48.578;11.574;2023-03-03T05:16:49;61.57;;;29.17;;
48002;SDS011;33768;48.578;11.574;2023-03-03T05:19:53;61.57;;;29.60;;
48002;SDS011;33768;48.578;11.574;2023-03-03T05:23:00;58.33;;;28.80;;
48002;SDS011;33768;48.578;11.574;2023-03-03T05:26:05;60.77;;;29.63;;
48002;SDS011;33768;48.578;11.574;2023-03-03T05:29:09;54.87;;;27.83;;
48002;SDS011;33768;48.578;11.574;2023-03-03T05:32:13;63.67;;;31.63;;
48002;SDS011;33768;48.578;11.574;2023-03-03T05:35:18;51.40;;;27.30;;
48002;SDS011;33768;48.578;11.574;2023-03-03T05:38:23;61.17;;;29.50;;
48002;SDS011;33768;48.578;11.574;2023-03-03T05:41:29;59.17;;;29.20;;
48002;SDS011;33768;48.578;11.574;2023-03-03T05:44:33;56.80;;;28.43;;
48002;SDS011;33768;48.578;11.574;2023-03-03T05:47:37;59.03;;;27.97;;
48002;SDS011;33768;48.578;11.574;2023-03-03T05:50:42;57.30;;;27.97;;
48002;SDS011;33768;48.578;11.574;2023-03-03T05:53:46;58.10;;;28.07;;
48002;SDS011;33768;48.578;11.574;2023-03-03T05:56:50;53.13;;;28.40;;
48002;SDS011;33768;48.578;11.574;2023-03-03T05:59:54;56.50;;;29.23;;
48002;SDS011;33768;48.578;11.574;2023-03-03T06:02:58;52.63;;;26.57;;
48002;SDS011;33768;48.578;11.574;2023-03-03T06:06:02;61.47;;;29.10;;
48002;SDS011;33768;48.578;11.574;2023-03-03T06:09:07;56.33;;;28.47;;
48002;SDS011;33768;48.578;11.574;2023-03-03T06:12:11;60.27;;;28.87;;
48002;SDS011;33768;48.578;11.574;2023-03-03T06:15:15;56.90;;;28.17;;
48002;SDS011;33768;48.578;11.574;2023-03-03T06:18:19;55.07;;;28.47;;
48002;SDS011;33768;48.578;11.574;2023-03-03T06:21:23;50.03;;;26.63;;
48002;SDS011;33768;48.578;11.574;2023-03-03T06:24:27;54.97;;;28.20;;
48002;SDS011;33768;48.578;11.574;2023-03-03T06:27:34;59.67;;;28.37;;
48002;SDS011;33768;48.578;11.574;2023-03-03T06:30:38;59.70;;;28.83;;
48002;SDS011;33768;48.578;11.574;2023-03-03T06:33:43;56.10;;;29.00;;
48002;SDS011;33768;48.578;11.574;2023-03-03T06:36:47;54.37;;;27.90;;
48002;SDS011;33768;48.578;11.574;2023-03-03T06:39:51;61.80;;;29.27;;
48002;SDS011;33768;48.578;11.574;2023-03-03T06:42:55;65.87;;;31.33;;
48002;SDS011;33768;48.578;11.574;2023-03-03T06:45:59;59.27;;;29.67;;
48002;SDS011;33768;48.578;11.574;2023-03-03T06:49:03;53.03;;;28.10;;
48002;SDS011;33768;48.578;11.574;2023-03-03T06:52:10;57.63;;;28.50;;
48002;SDS011;33768;48.578;11.574;2023-03-03T06:55:21;56.00;;;28.50;;
48002;SDS011;33768;48.578;11.574;2023-03-03T06:58:25;57.27;;;28.37;;
48002;SDS011;33768;48.578;11.574;2023-03-03T07:01:34;55.93;;;28.17;;
48002;SDS011;33768;48.578;11.574;2023-03-03T07:04:39;54.03;;;27.70;;
48002;SDS011;33768;48.578;11.574;2023-03-03T07:07:44;50.07;;;26.67;;
48002;SDS011;33768;48.578;11.574;2023-03-03T07:10:51;54.80;;;26.63;;
48002;SDS011;33768;48.578;11.574;2023-03-03T07:13:56;56.93;;;28.83;;
48002;SDS011;33768;48.578;11.574;2023-03-03T07:17:01;52.63;;;27.57;;
48002;SDS011;33768;48.578;11.574;2023-03-03T07:20:16;57.97;;;27.77;;
48002;SDS011;33768;48.578;11.574;2023-03-03T07:23:29;55.57;;;28.40;;
48002;SDS011;33768;48.578;11.574;2023-03-03T07:26:45;51.50;;;26.97;;
48002;SDS011;33768;48.578;11.574;2023-03-03T07:29:50;50.10;;;27.17;;
48002;SDS011;33768;48.578;11.574;2023-03-03T07:32:57;56.33;;;29.87;;
48002;SDS011;33768;48.578;11.574;2023-03-03T07:36:02;56.67;;;29.57;;
48002;SDS011;33768;48.578;11.574;2023-03-03T07:39:33;57.03;;;29.60;;
48002;SDS011;33768;48.578;11.574;2023-03-03T07:42:39;60.33;;;29.97;;
48002;SDS011;33768;48.578;11.574;2023-03-03T07:55:24;47.53;;;25.00;;
48002;SDS011;33768;48.578;11.574;2023-03-03T08:03:27;48.63;;;27.07;;
48002;SDS011;33768;48.578;11.574;2023-03-03T08:09:43;45.30;;;25.80;;
48002;SDS011;33768;48.578;11.574;2023-03-03T08:12:50;45.10;;;25.37;;
48002;SDS011;33768;48.578;11.574;2023-03-03T08:15:59;58.07;;;31.37;;
48002;SDS011;33768;48.578;11.574;2023-03-03T08:19:16;49.67;;;27.77;;
48002;SDS011;33768;48.578;11.574;2023-03-03T08:22:30;45.93;;;23.47;;
48002;SDS011;33768;48.578;11.574;2023-03-03T08:25:36;45.13;;;25.00;;
48002;SDS011;33768;48.578;11.574;2023-03-03T08:28:41;42.27;;;24.43;;
48002;SDS011;33768;48.578;11.574;2023-03-03T08:31:46;42.80;;;24.20;;
48002;SDS011;33768;48.578;11.574;2023-03-03T08:34:50;43.50;;;24.27;;
48002;SDS011;33768;48.578;11.574;2023-03-03T08:37:54;40.80;;;24.37;;
48002;SDS011;33768;48.578;11.574;2023-03-03T08:40:58;36.67;;;20.93;;
48002;SDS011;33768;48.578;11.574;2023-03-03T08:44:05;43.17;;;24.93;;
48002;SDS011;33768;48.578;11.574;2023-03-03T08:47:10;43.60;;;25.23;;
48002;SDS011;33768;48.578;11.574;2023-03-03T08:50:15;43.93;;;24.87;;
48002;SDS011;33768;48.578;11.574;2023-03-03T08:53:20;46.67;;;25.57;;
48002;SDS011;33768;48.578;11.574;2023-03-03T08:56:25;47.23;;;24.83;;
48002;SDS011;33768;48.578;11.574;2023-03-03T08:59:32;43.27;;;23.83;;
48002;SDS011;33768;48.578;11.574;2023-03-03T09:02:42;44.30;;;25.60;;
48002;SDS011;33768;48.578;11.574;2023-03-03T09:05:46;42.10;;;24.43;;
48002;SDS011;33768;48.578;11.574;2023-03-03T09:09:31;46.13;;;24.40;;
48002;SDS011;33768;48.578;11.574;2023-03-03T09:12:37;46.17;;;24.57;;
48002;SDS011;33768;48.578;11.574;2023-03-03T09:15:44;39.90;;;24.73;;
48002;SDS011;33768;48.578;11.574;2023-03-03T09:18:49;42.73;;;25.23;;
48002;SDS011;33768;48.578;11.574;2023-03-03T09:21:54;43.40;;;25.17;;
48002;SDS011;33768;48.578;11.574;2023-03-03T09:25:00;41.97;;;25.50;;
48002;SDS011;33768;48.578;11.574;2023-03-03T09:28:08;40.63;;;26.17;;
48002;SDS011;33768;48.578;11.574;2023-03-03T09:31:35;40.83;;;25.83;;
48002;SDS011;33768;48.578;11.574;2023-03-03T09:34:42;42.53;;;24.47;;
48002;SDS011;33768;48.578;11.574;2023-03-03T09:37:46;42.63;;;24.43;;
48002;SDS011;33768;48.578;11.574;2023-03-03T10:11:17;38.33;;;23.30;;
48002;SDS011;33768;48.578;11.574;2023-03-03T10:14:57;42.40;;;24.47;;
48002;SDS011;33768;48.578;11.574;2023-03-03T10:28:43;47.90;;;29.40;;
48002;SDS011;33768;48.578;11.574;2023-03-03T11:01:11;43.90;;;26.47;;
48002;SDS011;33768;48.578;11.574;2023-03-03T11:04:41;37.07;;;23.47;;
48002;SDS011;33768;48.578;11.574;2023-03-03T11:07:51;36.10;;;21.97;;
48002;SDS011;33768;48.578;11.574;2023-03-03T11:31:22;35.80;;;22.80;;
48002;SDS011;33768;48.578;11.574;2023-03-03T11:34:40;41.63;;;23.40;;
48002;SDS011;33768;48.578;11.574;2023-03-03T11:44:56;39.50;;;23.73;;
48002;SDS011;33768;48.578;11.574;2023-03-03T11:48:16;35.67;;;23.33;;
48002;SDS011;33768;48.578;11.574;2023-03-03T11:51:31;38.73;;;23.80;;
48002;SDS011;33768;48.578;11.574;2023-03-03T11:54:51;36.90;;;23.10;;
48002;SDS011;33768;48.578;11.574;2023-03-03T11:58:15;38.97;;;23.87;;
48002;SDS011;33768;48.578;11.574;2023-03-03T12:01:38;34.77;;;22.20;;
48002;SDS011;33768;48.578;11.574;2023-03-03T12:04:59;36.63;;;22.70;;
48002;SDS011;33768;48.578;11.574;2023-03-03T12:12:21;40.83;;;24.00;;
48002;SDS011;33768;48.578;11.574;2023-03-03T12:27:23;35.73;;;23.77;;
48002;SDS011;33768;48.578;11.574;2023-03-03T12:34:32;34.40;;;22.43;;
48002;SDS011;33768;48.578;11.574;2023-03-03T12:45:22;35.20;;;22.27;;
48002;SDS011;33768;48.578;11.574;2023-03-03T12:48:48;34.30;;;21.60;;
48002;SDS011;33768;48.578;11.574;2023-03-03T13:00:02;69.50;;;24.30;;
48002;SDS011;33768;48.578;11.574;2023-03-03T13:10:49;35.10;;;23.53;;
48002;SDS011;33768;48.578;11.574;2023-03-03T13:28:54;36.63;;;22.60;;
48002;SDS011;33768;48.578;11.574;2023-03-03T13:35:52;34.77;;;22.60;;
48002;SDS011;33768;48.578;11.574;2023-03-03T13:39:09;38.43;;;22.57;;
48002;SDS011;33768;48.578;11.574;2023-03-03T13:42:23;24.60;;;16.73;;
48002;SDS011;33768;48.578;11.574;2023-03-03T13:45:48;34.70;;;19.23;;
48002;SDS011;33768;48.578;11.574;2023-03-03T13:59:38;29.80;;;19.20;;
48002;SDS011;33768;48.578;11.574;2023-03-03T14:03:22;36.17;;;21.67;;
48002;SDS011;33768;48.578;11.574;2023-03-03T14:06:41;31.23;;;21.70;;
48002;SDS011;33768;48.578;11.574;2023-03-03T14:10:04;35.70;;;23.03;;
48002;SDS011;33768;48.578;11.574;2023-03-03T14:16:51;32.50;;;21.30;;
48002;SDS011;33768;48.578;11.574;2023-03-03T14:20:28;38.37;;;23.50;;
48002;SDS011;33768;48.578;11.574;2023-03-03T14:26:52;32.67;;;22.17;;
48002;SDS011;33768;48.578;11.574;2023-03-03T14:29:57;34.77;;;22.87;;
48002;SDS011;33768;48.578;11.574;2023-03-03T14:36:12;35.63;;;22.50;;
48002;SDS011;33768;48.578;11.574;2023-03-03T14:39:31;34.97;;;22.13;;
48002;SDS011;33768;48.578;11.574;2023-03-03T14:45:57;29.97;;;21.13;;
48002;SDS011;33768;48.578;11.574;2023-03-03T14:49:28;32.70;;;21.27;;
48002;SDS011;33768;48.578;11.574;2023-03-03T14:52:34;36.83;;;21.73;;
48002;SDS011;33768;48.578;11.574;2023-03-03T14:55:41;35.23;;;21.93;;
48002;SDS011;33768;48.578;11.574;2023-03-03T14:58:47;32.50;;;21.33;;
48002;SDS011;33768;48.578;11.574;2023-03-03T15:01:57;35.40;;;20.77;;
48002;SDS011;33768;48.578;11.574;2023-03-03T15:05:15;32.13;;;21.07;;
48002;SDS011;33768;48.578;11.574;2023-03-03T15:08:26;33.63;;;21.73;;
48002;SDS011;33768;48.578;11.574;2023-03-03T15:11:39;34.40;;;21.53;;
48002;SDS011;33768;48.578;11.574;2023-03-03T15:14:44;34.40;;;21.77;;
48002;SDS011;33768;48.578;11.574;2023-03-03T15:17:54;34.43;;;21.33;;
48002;SDS011;33768;48.578;11.574;2023-03-03T15:21:09;37.10;;;21.47;;
48002;SDS011;33768;48.578;11.574;2023-03-03T15:24:20;35.90;;;22.50;;
48002;SDS011;33768;48.578;11.574;2023-03-03T15:27:51;30.47;;;20.93;;
48002;SDS011;33768;48.578;11.574;2023-03-03T15:31:21;30.33;;;21.07;;
48002;SDS011;33768;48.578;11.574;2023-03-03T15:37:48;36.10;;;21.37;;
48002;SDS011;33768;48.578;11.574;2023-03-03T15:59:03;40.10;;;25.63;;
48002;SDS011;33768;48.578;11.574;2023-03-03T16:02:23;38.37;;;23.00;;
48002;SDS011;33768;48.578;11.574;2023-03-03T16:05:36;35.27;;;21.77;;
48002;SDS011;33768;48.578;11.574;2023-03-03T16:22:39;40.53;;;21.57;;
48002;SDS011;33768;48.578;11.574;2023-03-03T16:29:58;41.70;;;23.87;;
48002;SDS011;33768;48.578;11.574;2023-03-03T16:39:41;36.20;;;20.93;;
48002;SDS011;33768;48.578;11.574;2023-03-03T16:46:25;34.40;;;21.40;;
48002;SDS011;33768;48.578;11.574;2023-03-03T16:49:51;33.53;;;19.63;;
48002;SDS011;33768;48.578;11.574;2023-03-03T17:00:23;34.13;;;20.10;;
48002;SDS011;33768;48.578;11.574;2023-03-03T17:07:02;34.90;;;21.37;;
48002;SDS011;33768;48.578;11.574;2023-03-03T17:17:10;39.20;;;22.57;;
48002;SDS011;33768;48.578;11.574;2023-03-03T17:38:01;39.93;;;23.73;;
48002;SDS011;33768;48.578;11.574;2023-03-03T17:45:19;39.77;;;22.30;;
48002;SDS011;33768;48.578;11.574;2023-03-03T17:48:27;38.37;;;22.90;;
48002;SDS011;33768;48.578;11.574;2023-03-03T17:51:38;41.93;;;22.30;;
48002;SDS011;33768;48.578;11.574;2023-03-03T17:58:36;38.30;;;22.27;;
48002;SDS011;33768;48.578;11.574;2023-03-03T18:01:56;36.73;;;22.33;;
48002;SDS011;33768;48.578;11.574;2023-03-03T18:05:24;46.37;;;23.53;;
48002;SDS011;33768;48.578;11.574;2023-03-03T18:12:22;36.73;;;23.53;;
48002;SDS011;33768;48.578;11.574;2023-03-03T18:15:54;37.43;;;22.00;;
48002;SDS011;33768;48.578;11.574;2023-03-03T18:19:28;38.63;;;22.77;;
48002;SDS011;33768;48.578;11.574;2023-03-03T18:22:41;36.27;;;22.07;;
48002;SDS011;33768;48.578;11.574;2023-03-03T18:25:54;40.10;;;23.60;;
48002;SDS011;33768;48.578;11.574;2023-03-03T18:29:24;41.87;;;24.33;;
48002;SDS011;33768;48.578;11.574;2023-03-03T18:32:39;44.80;;;24.57;;
48002;SDS011;33768;48.578;11.574;2023-03-03T18:35:45;43.17;;;23.07;;
48002;SDS011;33768;48.578;11.574;2023-03-03T18:38:50;39.83;;;22.87;;
48002;SDS011;33768;48.578;11.574;2023-03-03T18:42:03;45.03;;;24.60;;
48002;SDS011;33768;48.578;11.574;2023-03-03T18:45:45;42.40;;;24.37;;
48002;SDS011;33768;48.578;11.574;2023-03-03T18:49:11;42.20;;;24.67;;
48002;SDS011;33768;48.578;11.574;2023-03-03T18:52:17;48.60;;;25.87;;
48002;SDS011;33768;48.578;11.574;2023-03-03T18:55:24;43.20;;;24.43;;
48002;SDS011;33768;48.578;11.574;2023-03-03T18:58:36;38.07;;;23.83;;
48002;SDS011;33768;48.578;11.574;2023-03-03T19:01:42;40.53;;;23.53;;
48002;SDS011;33768;48.578;11.574;2023-03-03T19:05:35;44.03;;;24.80;;
48002;SDS011;33768;48.578;11.574;2023-03-03T19:08:21;45.87;;;24.40;;
48002;SDS011;33768;48.578;11.574;2023-03-03T19:14:55;41.97;;;24.13;;
48002;SDS011;33768;48.578;11.574;2023-03-03T19:21:29;42.63;;;25.80;;
48002;SDS011;33768;48.578;11.574;2023-03-03T19:24:36;41.80;;;25.17;;
48002;SDS011;33768;48.578;11.574;2023-03-03T19:27:47;42.77;;;23.83;;
48002;SDS011;33768;48.578;11.574;2023-03-03T19:38:18;46.60;;;25.60;;
48002;SDS011;33768;48.578;11.574;2023-03-03T19:48:35;43.77;;;24.93;;
48002;SDS011;33768;48.578;11.574;2023-03-03T19:55:29;44.27;;;25.40;;
48002;SDS011;33768;48.578;11.574;2023-03-03T20:01:57;42.30;;;24.63;;
48002;SDS011;33768;48.578;11.574;2023-03-03T20:08:30;45.77;;;25.90;;
48002;SDS011;33768;48.578;11.574;2023-03-03T20:18:39;42.13;;;25.90;;
48002;SDS011;33768;48.578;11.574;2023-03-03T20:22:00;43.60;;;25.10;;
48002;SDS011;33768;48.578;11.574;2023-03-03T20:28:54;41.63;;;26.03;;
48002;SDS011;33768;48.578;11.574;2023-03-03T20:35:35;42.33;;;26.30;;
48002;SDS011;33768;48.578;11.574;2023-03-03T20:42:20;43.97;;;26.30;;
48002;SDS011;33768;48.578;11.574;2023-03-03T20:49:10;52.93;;;27.40;;
48002;SDS011;33768;48.578;11.574;2023-03-03T20:59:22;47.87;;;26.50;;
48002;SDS011;33768;48.578;11.574;2023-03-03T21:02:57;42.70;;;25.37;;
48002;SDS011;33768;48.578;11.574;2023-03-03T21:06:14;40.30;;;25.50;;
48002;SDS011;33768;48.578;11.574;2023-03-03T21:09:31;43.93;;;25.63;;
48002;SDS011;33768;48.578;11.574;2023-03-03T21:12:40;42.33;;;25.43;;
48002;SDS011;33768;48.578;11.574;2023-03-03T21:15:52;46.90;;;26.67;;
48002;SDS011;33768;48.578;11.574;2023-03-03T21:19:05;43.00;;;25.60;;
48002;SDS011;33768;48.578;11.574;2023-03-03T21:22:12;47.13;;;26.23;;
48002;SDS011;33768;48.578;11.574;2023-03-03T21:28:57;43.87;;;24.73;;
48002;SDS011;33768;48.578;11.574;2023-03-03T21:32:05;48.10;;;26.10;;
48002;SDS011;33768;48.578;11.574;2023-03-03T21:35:12;50.07;;;26.10;;
48002;SDS011;33768;48.578;11.574;2023-03-03T21:38:33;48.53;;;26.80;;
48002;SDS011;33768;48.578;11.574;2023-03-03T21:41:49;50.47;;;27.53;;
48002;SDS011;33768;48.578;11.574;2023-03-03T21:44:55;49.27;;;26.03;;
48002;SDS011;33768;48.578;11.574;2023-03-03T21:48:02;46.67;;;25.10;;
48002;SDS011;33768;48.578;11.574;2023-03-03T21:51:07;48.83;;;27.03;;
48002;SDS011;33768;48.578;11.574;2023-03-03T21:54:12;39.77;;;23.73;;
48002;SDS011;33768;48.578;11.574;2023-03-03T21:57:16;45.00;;;26.30;;
48002;SDS011;33768;48.578;11.574;2023-03-03T22:00:21;42.83;;;25.20;;
48002;SDS011;33768;48.578;11.574;2023-03-03T22:03:26;44.30;;;25.73;;
48002;SDS011;33768;48.578;11.574;2023-03-03T22:06:30;42.07;;;24.27;;
48002;SDS011;33768;48.578;11.574;2023-03-03T22:09:35;48.17;;;25.13;;
48002;SDS011;33768;48.578;11.574;2023-03-03T22:12:39;41.20;;;24.83;;
48002;SDS011;33768;48.578;11.574;2023-03-03T22:15:44;46.17;;;25.63;;
48002;SDS011;33768;48.578;11.574;2023-03-03T22:18:49;41.10;;;23.83;;
48002;SDS011;33768;48.578;11.574;2023-03-03T22:21:53;44.33;;;24.60;;
48002;SDS011;33768;48.578;11.574;2023-03-03T22:24:57;40.43;;;23.00;;
48002;SDS011;33768;48.578;11.574;2023-03-03T22:28:02;41.77;;;23.83;;
48002;SDS011;33768;48.578;11.574;2023-03-03T22:31:06;39.17;;;23.67;;
48002;SDS011;33768;48.578;11.574;2023-03-03T22:34:11;43.90;;;24.30;;
48002;SDS011;33768;48.578;11.574;2023-03-03T22:37:15;37.57;;;21.90;;
48002;SDS011;33768;48.578;11.574;2023-03-03T22:40:19;37.90;;;22.73;;
48002;SDS011;33768;48.578;11.574;2023-03-03T22:43:23;37.50;;;22.23;;
48002;SDS011;33768;48.578;11.574;2023-03-03T22:46:28;42.03;;;22.80;;
48002;SDS011;33768;48.578;11.574;2023-03-03T22:49:32;37.20;;;21.53;;
48002;SDS011;33768;48.578;11.574;2023-03-03T22:52:37;39.53;;;23.03;;
48002;SDS011;33768;48.578;11.574;2023-03-03T22:55:41;42.80;;;24.07;;
48002;SDS011;33768;48.578;11.574;2023-03-03T22:58:45;43.17;;;22.23;;
48002;SDS011;33768;48.578;11.574;2023-03-03T23:01:50;40.10;;;22.30;;
48002;SDS011;33768;48.578;11.574;2023-03-03T23:04:54;35.93;;;20.70;;
48002;SDS011;33768;48.578;11.574;2023-03-03T23:08:04;36.77;;;21.70;;
48002;SDS011;33768;48.578;11.574;2023-03-03T23:11:11;41.23;;;21.90;;
48002;SDS011;33768;48.578;11.574;2023-03-03T23:14:15;35.57;;;19.87;;
48002;SDS011;33768;48.578;11.574;2023-03-03T23:17:20;34.27;;;18.73;;
48002;SDS011;33768;48.578;11.574;2023-03-03T23:20:26;36.00;;;20.87;;
48002;SDS011;33768;48.578;11.574;2023-03-03T23:23:32;32.27;;;19.60;;
48002;SDS011;33768;48.578;11.574;2023-03-03T23:26:36;34.23;;;19.30;;
48002;SDS011;33768;48.578;11.574;2023-03-03T23:29:41;33.60;;;18.97;;
48002;SDS011;33768;48.578;11.574;2023-03-03T23:32:45;32.07;;;19.23;;
48002;SDS011;33768;48.578;11.574;2023-03-03T23:35:51;34.27;;;18.80;;
48002;SDS011;33768;48.578;11.574;2023-03-03T23:38:55;31.87;;;18.57;;
48002;SDS011;33768;48.578;11.574;2023-03-03T23:42:00;40.67;;;21.00;;
48002;SDS011;33768;48.578;11.574;2023-03-03T23:45:04;33.67;;;19.47;;
48002;SDS011;33768;48.578;11.574;2023-03-03T23:48:09;30.50;;;17.67;;
48002;SDS011;33768;48.578;11.574;2023-03-03T23:51:13;31.23;;;17.33;;
48002;SDS011;33768;48.578;11.574;2023-03-03T23:54:17;30.20;;;17.23;;
48002;SDS011;33768;48.578;11.574;2023-03-03T23:57:21;31.23;;;17.60;;
